sensor_id;sensor_type;location;lat;lon;timestamp;pressure;altitude;pressure_sealevel;temperature;humidity
67038;BME280;53940;53.204;6.590;2022-07-01T00:02:36;101221.31;;;21.01;59.57
67038;BME280;53940;53.204;6.590;2022-07-01T00:05:37;101233.03;;;21.00;59.31
67038;BME280;53940;53.204;6.590;2022-07-01T00:08:37;101237.41;;;21.01;59.74
67038;BME280;53940;53.204;6.590;2022-07-01T00:11:37;101242.75;;;21.01;59.47
67038;BME280;53940;53.204;6.590;2022-07-01T00:14:38;101245.44;;;21.01;59.62
67038;BME280;53940;53.204;6.590;2022-07-01T00:17:38;101232.03;;;21.01;59.45
67038;BME280;53940;53.204;6.590;2022-07-01T00:20:39;101248.97;;;21.02;59.43
67038;BME280;53940;53.204;6.590;2022-07-01T00:23:41;101258.00;;;21.00;59.57
67038;BME280;53940;53.204;6.590;2022-07-01T00:26:41;101257.13;;;21.00;59.50
67038;BME280;53940;53.204;6.590;2022-07-01T00:29:42;101257.13;;;21.00;59.43
67038;BME280;53940;53.204;6.590;2022-07-01T00:32:42;101249.09;;;21.00;59.57
67038;BME280;53940;53.204;6.590;2022-07-01T00:35:42;101266.88;;;21.01;59.58
67038;BME280;53940;53.204;6.590;2022-07-01T00:38:43;101259.81;;;21.00;59.69
67038;BME280;53940;53.204;6.590;2022-07-01T00:41:43;101257.13;;;21.00;59.51
67038;BME280;53940;53.204;6.590;2022-07-01T00:44:43;101259.94;;;20.98;59.56
67038;BME280;53940;53.204;6.590;2022-07-01T00:47:44;101250.09;;;20.99;59.30
67038;BME280;53940;53.204;6.590;2022-07-01T00:50:45;101232.19;;;20.99;59.63
67038;BME280;53940;53.204;6.590;2022-07-01T00:53:46;101232.19;;;20.99;59.38
67038;BME280;53940;53.204;6.590;2022-07-01T00:56:47;101240.34;;;20.98;59.50
67038;BME280;53940;53.204;6.590;2022-07-01T00:59:48;101242.03;;;20.99;59.70
67038;BME280;53940;53.204;6.590;2022-07-01T01:02:48;101241.19;;;20.98;59.51
67038;BME280;53940;53.204;6.590;2022-07-01T01:05:49;101242.03;;;20.99;59.30
67038;BME280;53940;53.204;6.590;2022-07-01T01:08:50;101247.41;;;20.99;59.29
67038;BME280;53940;53.204;6.590;2022-07-01T01:11:51;101279.56;;;20.99;59.29
67038;BME280;53940;53.204;6.590;2022-07-01T01:14:52;101271.53;;;20.99;59.58
67038;BME280;53940;53.204;6.590;2022-07-01T01:17:52;101254.59;;;20.98;59.42
67038;BME280;53940;53.204;6.590;2022-07-01T01:20:54;101254.59;;;20.98;59.65
67038;BME280;53940;53.204;6.590;2022-07-01T01:23:54;101253.75;;;20.98;59.21
67038;BME280;53940;53.204;6.590;2022-07-01T01:26:55;101242.03;;;20.99;59.42
67038;BME280;53940;53.204;6.590;2022-07-01T01:29:55;101228.66;;;20.99;59.26
67038;BME280;53940;53.204;6.590;2022-07-01T01:32:55;101216.13;;;20.99;59.57
67038;BME280;53940;53.204;6.590;2022-07-01T01:35:56;101219.75;;;20.98;59.33
67038;BME280;53940;53.204;6.590;2022-07-01T01:38:56;101216.25;;;20.98;59.36
67038;BME280;53940;53.204;6.590;2022-07-01T01:42:08;101221.59;;;20.98;59.38
67038;BME280;53940;53.204;6.590;2022-07-01T01:45:09;101239.38;;;20.99;59.38
67038;BME280;53940;53.204;6.590;2022-07-01T01:48:10;101236.69;;;20.99;59.33
67038;BME280;53940;53.204;6.590;2022-07-01T01:51:10;101234.00;;;20.99;59.34
67038;BME280;53940;53.204;6.590;2022-07-01T01:54:10;101234.00;;;20.99;59.21
67038;BME280;53940;53.204;6.590;2022-07-01T01:57:11;101234.00;;;20.99;59.05
67038;BME280;53940;53.204;6.590;2022-07-01T02:00:11;101242.03;;;20.99;59.18
67038;BME280;53940;53.204;6.590;2022-07-01T02:03:12;101246.53;;;20.98;59.37
67038;BME280;53940;53.204;6.590;2022-07-01T02:06:13;101253.75;;;20.98;59.04
67038;BME280;53940;53.204;6.590;2022-07-01T02:09:14;101266.16;;;20.99;59.28
67038;BME280;53940;53.204;6.590;2022-07-01T02:12:14;101266.16;;;20.99;59.25
67038;BME280;53940;53.204;6.590;2022-07-01T02:15:15;101282.25;;;20.99;59.41
67038;BME280;53940;53.204;6.590;2022-07-01T02:18:15;101274.19;;;20.99;59.19
67038;BME280;53940;53.204;6.590;2022-07-01T02:21:16;101296.50;;;20.99;59.51
67038;BME280;53940;53.204;6.590;2022-07-01T02:24:17;101295.63;;;20.99;59.08
67038;BME280;53940;53.204;6.590;2022-07-01T02:27:17;101292.97;;;20.99;59.51
67038;BME280;53940;53.204;6.590;2022-07-01T02:30:19;101303.66;;;20.99;59.28
67038;BME280;53940;53.204;6.590;2022-07-01T02:33:19;101305.38;;;21.00;59.36
67038;BME280;53940;53.204;6.590;2022-07-01T02:36:19;101311.72;;;20.99;59.01
67038;BME280;53940;53.204;6.590;2022-07-01T02:39:20;101305.38;;;21.00;59.13
67038;BME280;53940;53.204;6.590;2022-07-01T02:42:20;101309.91;;;20.99;59.17
67038;BME280;53940;53.204;6.590;2022-07-01T02:45:23;101316.09;;;21.00;59.26
67038;BME280;53940;53.204;6.590;2022-07-01T02:48:25;101318.75;;;21.00;59.18
67038;BME280;53940;53.204;6.590;2022-07-01T02:51:25;101318.75;;;21.00;59.27
67038;BME280;53940;53.204;6.590;2022-07-01T02:54:26;101316.09;;;21.00;59.08
67038;BME280;53940;53.204;6.590;2022-07-01T02:57:26;101312.56;;;20.99;59.05
67038;BME280;53940;53.204;6.590;2022-07-01T03:00:26;101316.94;;;21.00;59.42
67038;BME280;53940;53.204;6.590;2022-07-01T03:03:27;101308.03;;;21.00;59.19
67038;BME280;53940;53.204;6.590;2022-07-01T03:06:27;101300.88;;;21.00;59.08
67038;BME280;53940;53.204;6.590;2022-07-01T03:09:27;101310.72;;;21.00;59.35
67038;BME280;53940;53.204;6.590;2022-07-01T03:12:28;101302.69;;;21.00;59.02
67038;BME280;53940;53.204;6.590;2022-07-01T03:15:28;101314.25;;;21.00;59.04
67038;BME280;53940;53.204;6.590;2022-07-01T03:18:28;101316.94;;;21.00;58.85
67038;BME280;53940;53.204;6.590;2022-07-01T03:21:29;101311.59;;;21.00;59.00
67038;BME280;53940;53.204;6.590;2022-07-01T03:24:31;101300.88;;;21.00;59.02
67038;BME280;53940;53.204;6.590;2022-07-01T03:27:32;101310.72;;;21.00;58.92
67038;BME280;53940;53.204;6.590;2022-07-01T03:30:33;101300.00;;;21.00;59.17
67038;BME280;53940;53.204;6.590;2022-07-01T03:33:34;101306.22;;;21.00;59.29
67038;BME280;53940;53.204;6.590;2022-07-01T03:36:34;101316.09;;;21.00;58.92
67038;BME280;53940;53.204;6.590;2022-07-01T03:39:37;101325.81;;;21.01;58.82
67038;BME280;53940;53.204;6.590;2022-07-01T03:42:38;101333.03;;;21.00;58.92
67038;BME280;53940;53.204;6.590;2022-07-01T03:45:40;101340.06;;;21.02;58.98
67038;BME280;53940;53.204;6.590;2022-07-01T03:48:40;101341.91;;;21.01;59.19
67038;BME280;53940;53.204;6.590;2022-07-01T03:51:41;101336.53;;;21.01;59.09
67038;BME280;53940;53.204;6.590;2022-07-01T03:54:41;101333.84;;;21.01;59.20
67038;BME280;53940;53.204;6.590;2022-07-01T03:57:41;101318.63;;;21.02;59.16
67038;BME280;53940;53.204;6.590;2022-07-01T04:00:42;101315.09;;;21.01;59.04
67038;BME280;53940;53.204;6.590;2022-07-01T04:03:42;101314.13;;;21.02;59.16
67038;BME280;53940;53.204;6.590;2022-07-01T04:06:43;101330.19;;;21.02;58.83
67038;BME280;53940;53.204;6.590;2022-07-01T04:09:44;101331.06;;;21.03;58.76
67038;BME280;53940;53.204;6.590;2022-07-01T04:12:44;101341.78;;;21.03;59.02
67038;BME280;53940;53.204;6.590;2022-07-01T04:15:44;101342.63;;;21.03;58.73
67038;BME280;53940;53.204;6.590;2022-07-01T04:18:45;101336.41;;;21.03;58.72
67038;BME280;53940;53.204;6.590;2022-07-01T04:21:46;101340.91;;;21.02;58.80
67038;BME280;53940;53.204;6.590;2022-07-01T04:25:05;101356.03;;;21.03;58.93
67038;BME280;53940;53.204;6.590;2022-07-01T04:28:07;101362.34;;;21.02;59.00
67038;BME280;53940;53.204;6.590;2022-07-01T04:31:07;101369.44;;;21.03;58.87
67038;BME280;53940;53.204;6.590;2022-07-01T04:34:09;101374.78;;;21.03;58.83
67038;BME280;53940;53.204;6.590;2022-07-01T04:37:09;101381.84;;;21.04;58.95
67038;BME280;53940;53.204;6.590;2022-07-01T04:40:09;101380.88;;;21.05;59.07
67038;BME280;53940;53.204;6.590;2022-07-01T04:43:10;101374.63;;;21.05;58.46
67038;BME280;53940;53.204;6.590;2022-07-01T04:46:10;101379.16;;;21.04;58.99
67038;BME280;53940;53.204;6.590;2022-07-01T04:49:11;101380.97;;;21.04;59.05
67038;BME280;53940;53.204;6.590;2022-07-01T04:52:11;101393.41;;;21.05;58.96
67038;BME280;53940;53.204;6.590;2022-07-01T04:55:14;101395.25;;;21.04;58.89
67038;BME280;53940;53.204;6.590;2022-07-01T04:58:15;101400.47;;;21.06;58.84
67038;BME280;53940;53.204;6.590;2022-07-01T05:01:15;101407.66;;;21.05;58.80
67038;BME280;53940;53.204;6.590;2022-07-01T05:04:16;101419.25;;;21.06;58.63
67038;BME280;53940;53.204;6.590;2022-07-01T05:07:17;101422.75;;;21.06;58.69
67038;BME280;53940;53.204;6.590;2022-07-01T05:10:30;101425.44;;;21.06;58.58
67038;BME280;53940;53.204;6.590;2022-07-01T05:13:30;101411.06;;;21.07;58.62
67038;BME280;53940;53.204;6.590;2022-07-01T05:16:30;101422.75;;;21.06;58.54
67038;BME280;53940;53.204;6.590;2022-07-01T05:19:31;101419.25;;;21.06;58.84
67038;BME280;53940;53.204;6.590;2022-07-01T05:22:50;101415.44;;;21.08;58.77
67038;BME280;53940;53.204;6.590;2022-07-01T05:25:50;101424.44;;;21.07;58.67
67038;BME280;53940;53.204;6.590;2022-07-01T05:28:52;101437.84;;;21.07;58.76
67038;BME280;53940;53.204;6.590;2022-07-01T05:31:52;101438.59;;;21.09;58.63
67038;BME280;53940;53.204;6.590;2022-07-01T05:34:53;101431.50;;;21.08;58.47
67038;BME280;53940;53.204;6.590;2022-07-01T05:37:53;101435.06;;;21.09;58.64
67038;BME280;53940;53.204;6.590;2022-07-01T05:40:53;101443.09;;;21.09;58.68
67038;BME280;53940;53.204;6.590;2022-07-01T05:43:54;101443.94;;;21.09;58.68
67038;BME280;53940;53.204;6.590;2022-07-01T05:46:54;101448.34;;;21.10;58.57
67038;BME280;53940;53.204;6.590;2022-07-01T05:49:54;101450.16;;;21.10;58.52
67038;BME280;53940;53.204;6.590;2022-07-01T05:52:55;101452.69;;;21.11;58.78
67038;BME280;53940;53.204;6.590;2022-07-01T05:55:55;101458.94;;;21.12;58.78
67038;BME280;53940;53.204;6.590;2022-07-01T05:58:55;101450.03;;;21.11;58.75
67038;BME280;53940;53.204;6.590;2022-07-01T06:01:56;101454.41;;;21.12;58.60
67038;BME280;53940;53.204;6.590;2022-07-01T06:04:56;101451.59;;;21.14;58.58
67038;BME280;53940;53.204;6.590;2022-07-01T06:07:59;101451.59;;;21.14;58.57
67038;BME280;53940;53.204;6.590;2022-07-01T06:10:59;101449.75;;;21.14;58.42
67038;BME280;53940;53.204;6.590;2022-07-01T06:14:00;101442.56;;;21.15;58.62
67038;BME280;53940;53.204;6.590;2022-07-01T06:17:00;101443.44;;;21.16;58.45
67038;BME280;53940;53.204;6.590;2022-07-01T06:20:00;101439.78;;;21.17;58.61
67038;BME280;53940;53.204;6.590;2022-07-01T06:23:01;101445.97;;;21.17;58.25
67038;BME280;53940;53.204;6.590;2022-07-01T06:26:01;101443.16;;;21.19;58.37
67038;BME280;53940;53.204;6.590;2022-07-01T06:29:01;101444.88;;;21.20;58.33
67038;BME280;53940;53.204;6.590;2022-07-01T06:32:04;101438.41;;;21.22;58.34
67038;BME280;53940;53.204;6.590;2022-07-01T06:35:05;101452.41;;;21.26;58.35
67038;BME280;53940;53.204;6.590;2022-07-01T06:38:05;101440.72;;;21.27;58.19
67038;BME280;53940;53.204;6.590;2022-07-01T06:41:06;101439.56;;;21.30;58.43
67038;BME280;53940;53.204;6.590;2022-07-01T06:44:24;101430.59;;;21.31;58.27
67038;BME280;53940;53.204;6.590;2022-07-01T06:47:25;101433.84;;;21.34;58.17
67038;BME280;53940;53.204;6.590;2022-07-01T06:50:25;101438.22;;;21.35;58.37
67038;BME280;53940;53.204;6.590;2022-07-01T06:53:25;101441.63;;;21.37;58.13
67038;BME280;53940;53.204;6.590;2022-07-01T06:56:26;101439.69;;;21.39;58.36
67038;BME280;53940;53.204;6.590;2022-07-01T06:59:26;101436.00;;;21.40;58.42
67038;BME280;53940;53.204;6.590;2022-07-01T07:02:26;101436.72;;;21.43;58.20
67038;BME280;53940;53.204;6.590;2022-07-01T07:05:27;101440.28;;;21.43;58.09
67038;BME280;53940;53.204;6.590;2022-07-01T07:08:31;101444.53;;;21.46;58.08
67038;BME280;53940;53.204;6.590;2022-07-01T07:11:32;101450.72;;;21.46;58.20
67038;BME280;53940;53.204;6.590;2022-07-01T07:14:32;101447.06;;;21.47;58.21
67038;BME280;53940;53.204;6.590;2022-07-01T07:17:32;101460.34;;;21.49;57.93
67038;BME280;53940;53.204;6.590;2022-07-01T07:20:34;101456.66;;;21.50;58.10
67038;BME280;53940;53.204;6.590;2022-07-01T07:23:34;101459.22;;;21.51;58.11
67038;BME280;53940;53.204;6.590;2022-07-01T07:26:35;101455.56;;;21.52;58.01
67038;BME280;53940;53.204;6.590;2022-07-01T07:29:36;101452.88;;;21.52;58.15
67038;BME280;53940;53.204;6.590;2022-07-01T07:32:36;101466.88;;;21.56;58.06
67038;BME280;53940;53.204;6.590;2022-07-01T07:35:36;101465.88;;;21.57;58.28
67038;BME280;53940;53.204;6.590;2022-07-01T07:38:37;101472.97;;;21.58;58.03
67038;BME280;53940;53.204;6.590;2022-07-01T07:41:38;101473.69;;;21.60;58.10
67038;BME280;53940;53.204;6.590;2022-07-01T07:44:39;101483.44;;;21.61;58.12
67038;BME280;53940;53.204;6.590;2022-07-01T07:47:47;101485.13;;;21.62;58.17
67038;BME280;53940;53.204;6.590;2022-07-01T07:50:48;101488.69;;;21.63;58.16
67038;BME280;53940;53.204;6.590;2022-07-01T07:53:49;101478.78;;;21.63;58.26
67038;BME280;53940;53.204;6.590;2022-07-01T07:56:49;101479.63;;;21.64;57.99
67038;BME280;53940;53.204;6.590;2022-07-01T07:59:49;101478.53;;;21.66;58.07
67038;BME280;53940;53.204;6.590;2022-07-01T08:02:50;101482.91;;;21.67;58.29
67038;BME280;53940;53.204;6.590;2022-07-01T08:05:50;101488.28;;;21.67;58.47
67038;BME280;53940;53.204;6.590;2022-07-01T08:08:50;101490.84;;;21.69;58.29
67038;BME280;53940;53.204;6.590;2022-07-01T08:11:51;101494.13;;;21.73;58.00
67038;BME280;53940;53.204;6.590;2022-07-01T08:14:51;101508.25;;;21.75;57.94
67038;BME280;53940;53.204;6.590;2022-07-01T08:17:52;101499.22;;;21.76;58.23
67038;BME280;53940;53.204;6.590;2022-07-01T08:20:52;101502.66;;;21.78;58.18
67038;BME280;53940;53.204;6.590;2022-07-01T08:23:52;101502.66;;;21.78;58.10
67038;BME280;53940;53.204;6.590;2022-07-01T08:26:53;101521.28;;;21.79;57.96
67038;BME280;53940;53.204;6.590;2022-07-01T08:29:53;101524.81;;;21.80;57.83
67038;BME280;53940;53.204;6.590;2022-07-01T08:32:53;101530.91;;;21.82;57.81
67038;BME280;53940;53.204;6.590;2022-07-01T08:35:54;101539.69;;;21.84;57.70
67038;BME280;53940;53.204;6.590;2022-07-01T08:38:54;101532.34;;;21.86;57.76
67038;BME280;53940;53.204;6.590;2022-07-01T08:41:55;101526.72;;;21.89;57.86
67038;BME280;53940;53.204;6.590;2022-07-01T08:44:56;101519.41;;;21.91;57.91
67038;BME280;53940;53.204;6.590;2022-07-01T08:47:58;101521.94;;;21.93;57.90
67038;BME280;53940;53.204;6.590;2022-07-01T08:51:01;101519.13;;;21.94;57.52
67038;BME280;53940;53.204;6.590;2022-07-01T08:54:06;101525.22;;;21.97;57.66
67038;BME280;53940;53.204;6.590;2022-07-01T08:57:07;101526.63;;;22.01;57.50
67038;BME280;53940;53.204;6.590;2022-07-01T09:00:08;101514.66;;;22.05;57.69
67038;BME280;53940;53.204;6.590;2022-07-01T09:03:09;101514.13;;;22.11;57.56
67038;BME280;53940;53.204;6.590;2022-07-01T09:09:21;101520.41;;;22.21;57.14
67038;BME280;53940;53.204;6.590;2022-07-01T09:12:21;101523.56;;;22.27;57.26
67038;BME280;53940;53.204;6.590;2022-07-01T09:15:29;101520.34;;;22.33;57.32
67038;BME280;53940;53.204;6.590;2022-07-01T09:18:33;101520.75;;;22.38;57.05
67038;BME280;53940;53.204;6.590;2022-07-01T09:21:33;101527.56;;;22.42;56.77
67038;BME280;53940;53.204;6.590;2022-07-01T09:24:38;101530.97;;;22.44;56.73
67038;BME280;53940;53.204;6.590;2022-07-01T09:27:39;101541.44;;;22.47;56.90
67038;BME280;53940;53.204;6.590;2022-07-01T09:30:43;101548.28;;;22.52;56.76
67038;BME280;53940;53.204;6.590;2022-07-01T09:34:08;101545.19;;;22.56;56.52
67038;BME280;53940;53.204;6.590;2022-07-01T09:37:15;101548.59;;;22.58;56.69
67038;BME280;53940;53.204;6.590;2022-07-01T09:40:15;101558.94;;;22.63;56.50
67038;BME280;53940;53.204;6.590;2022-07-01T09:43:21;101555.09;;;22.66;56.38
67038;BME280;53940;53.204;6.590;2022-07-01T09:46:22;101559.38;;;22.68;56.39
67038;BME280;53940;53.204;6.590;2022-07-01T09:49:23;101565.47;;;22.70;56.26
67038;BME280;53940;53.204;6.590;2022-07-01T09:52:24;101568.16;;;22.70;56.33
67038;BME280;53940;53.204;6.590;2022-07-01T09:55:24;101563.63;;;22.71;56.15
67038;BME280;53940;53.204;6.590;2022-07-01T09:58:26;101571.56;;;22.72;56.23
67038;BME280;53940;53.204;6.590;2022-07-01T10:01:27;101561.66;;;22.73;56.39
67038;BME280;53940;53.204;6.590;2022-07-01T10:04:31;101575.94;;;22.73;56.23
67038;BME280;53940;53.204;6.590;2022-07-01T10:08:01;101583.88;;;22.75;56.07
67038;BME280;53940;53.204;6.590;2022-07-01T10:14:24;101580.06;;;22.78;56.23
67038;BME280;53940;53.204;6.590;2022-07-01T10:17:35;101580.06;;;22.78;55.78
67038;BME280;53940;53.204;6.590;2022-07-01T10:20:36;101579.94;;;22.79;56.17
67038;BME280;53940;53.204;6.590;2022-07-01T10:23:39;101580.63;;;22.81;56.07
67038;BME280;53940;53.204;6.590;2022-07-01T10:26:40;101584.91;;;22.84;56.08
67038;BME280;53940;53.204;6.590;2022-07-01T10:29:41;101581.22;;;22.85;55.99
67038;BME280;53940;53.204;6.590;2022-07-01T10:32:51;101572.16;;;22.86;55.64
67038;BME280;53940;53.204;6.590;2022-07-01T10:35:51;101568.47;;;22.87;55.88
67038;BME280;53940;53.204;6.590;2022-07-01T10:42:06;101578.41;;;22.86;55.80
67038;BME280;53940;53.204;6.590;2022-07-01T10:45:10;101573.59;;;22.90;55.79
67038;BME280;53940;53.204;6.590;2022-07-01T10:48:22;101573.59;;;22.90;55.71
67038;BME280;53940;53.204;6.590;2022-07-01T10:51:48;101578.97;;;22.90;55.54
67038;BME280;53940;53.204;6.590;2022-07-01T10:54:54;101578.97;;;22.90;55.86
67038;BME280;53940;53.204;6.590;2022-07-01T10:57:56;101580.66;;;22.91;55.80
67038;BME280;53940;53.204;6.590;2022-07-01T11:00:56;101577.97;;;22.91;55.76
67038;BME280;53940;53.204;6.590;2022-07-01T11:03:57;101582.38;;;22.92;55.94
67038;BME280;53940;53.204;6.590;2022-07-01T11:06:58;101585.06;;;22.92;55.73
67038;BME280;53940;53.204;6.590;2022-07-01T11:09:59;101583.34;;;22.91;55.70
67038;BME280;53940;53.204;6.590;2022-07-01T11:13:01;101602.16;;;22.91;55.81
67038;BME280;53940;53.204;6.590;2022-07-01T11:16:01;101602.16;;;22.91;55.72
67038;BME280;53940;53.204;6.590;2022-07-01T11:19:05;101617.59;;;22.89;55.97
67038;BME280;53940;53.204;6.590;2022-07-01T11:22:06;101608.53;;;22.90;55.87
67038;BME280;53940;53.204;6.590;2022-07-01T11:25:09;101604.16;;;22.89;56.02
67038;BME280;53940;53.204;6.590;2022-07-01T11:28:11;101604.16;;;22.89;56.08
67038;BME280;53940;53.204;6.590;2022-07-01T11:31:12;101604.16;;;22.89;56.10
67038;BME280;53940;53.204;6.590;2022-07-01T11:34:15;101608.66;;;22.88;56.17
67038;BME280;53940;53.204;6.590;2022-07-01T11:37:16;101607.84;;;22.88;56.47
67038;BME280;53940;53.204;6.590;2022-07-01T11:40:35;101597.09;;;22.88;56.51
67038;BME280;53940;53.204;6.590;2022-07-01T11:43:37;101585.59;;;22.86;56.47
67038;BME280;53940;53.204;6.590;2022-07-01T11:46:38;101588.28;;;22.86;56.57
67038;BME280;53940;53.204;6.590;2022-07-01T11:49:47;101587.56;;;22.84;56.74
67038;BME280;53940;53.204;6.590;2022-07-01T11:52:47;101592.81;;;22.85;56.63
67038;BME280;53940;53.204;6.590;2022-07-01T11:55:48;101588.28;;;22.86;56.69
67038;BME280;53940;53.204;6.590;2022-07-01T11:58:49;101583.03;;;22.84;56.56
67038;BME280;53940;53.204;6.590;2022-07-01T12:01:52;101593.78;;;22.84;56.73
67038;BME280;53940;53.204;6.590;2022-07-01T12:04:53;101601.84;;;22.84;56.65
67038;BME280;53940;53.204;6.590;2022-07-01T12:07:54;101604.53;;;22.84;56.73
67038;BME280;53940;53.204;6.590;2022-07-01T12:10:54;101606.38;;;22.84;56.70
67038;BME280;53940;53.204;6.590;2022-07-01T12:13:58;101611.75;;;22.84;56.62
67038;BME280;53940;53.204;6.590;2022-07-01T12:17:05;101608.09;;;22.85;56.79
67038;BME280;53940;53.204;6.590;2022-07-01T12:20:06;101601.72;;;22.86;56.58
67038;BME280;53940;53.204;6.590;2022-07-01T12:23:11;101602.47;;;22.88;56.79
67038;BME280;53940;53.204;6.590;2022-07-01T12:26:12;101600.72;;;22.87;56.71
67038;BME280;53940;53.204;6.590;2022-07-01T12:29:12;101597.09;;;22.88;56.47
67038;BME280;53940;53.204;6.590;2022-07-01T12:32:15;101598.78;;;22.89;56.67
67038;BME280;53940;53.204;6.590;2022-07-01T12:35:23;101592.53;;;22.88;56.67
67038;BME280;53940;53.204;6.590;2022-07-01T12:38:36;101594.22;;;22.89;56.72
67038;BME280;53940;53.204;6.590;2022-07-01T12:41:37;101600.47;;;22.90;56.54
67038;BME280;53940;53.204;6.590;2022-07-01T12:44:44;101597.91;;;22.88;56.36
67038;BME280;53940;53.204;6.590;2022-07-01T12:47:45;101601.31;;;22.91;56.73
67038;BME280;53940;53.204;6.590;2022-07-01T12:50:46;101600.47;;;22.90;56.61
67038;BME280;53940;53.204;6.590;2022-07-01T12:53:47;101601.31;;;22.91;56.68
67038;BME280;53940;53.204;6.590;2022-07-01T12:56:48;101606.69;;;22.91;56.73
67038;BME280;53940;53.204;6.590;2022-07-01T12:59:48;101602.16;;;22.91;56.59
67038;BME280;53940;53.204;6.590;2022-07-01T13:02:53;101603.16;;;22.90;56.54
67038;BME280;53940;53.204;6.590;2022-07-01T13:05:55;101607.53;;;22.91;56.56
67038;BME280;53940;53.204;6.590;2022-07-01T13:08:55;101612.91;;;22.91;56.63
67038;BME280;53940;53.204;6.590;2022-07-01T13:11:56;101598.50;;;22.92;56.53
67038;BME280;53940;53.204;6.590;2022-07-01T13:14:57;101607.53;;;22.91;56.71
67038;BME280;53940;53.204;6.590;2022-07-01T13:17:58;101614.63;;;22.92;56.62
67038;BME280;53940;53.204;6.590;2022-07-01T13:20:58;101614.63;;;22.92;56.73
67038;BME280;53940;53.204;6.590;2022-07-01T13:23:58;101613.78;;;22.92;56.67
67038;BME280;53940;53.204;6.590;2022-07-01T13:26:59;101612.78;;;22.93;56.59
67038;BME280;53940;53.204;6.590;2022-07-01T13:29:59;101612.91;;;22.91;56.65
67038;BME280;53940;53.204;6.590;2022-07-01T13:33:03;101607.53;;;22.91;56.81
67038;BME280;53940;53.204;6.590;2022-07-01T13:36:03;101613.78;;;22.92;56.45
67038;BME280;53940;53.204;6.590;2022-07-01T13:39:04;101618.28;;;22.91;56.52
67038;BME280;53940;53.204;6.590;2022-07-01T13:42:04;101628.06;;;22.92;56.56
67038;BME280;53940;53.204;6.590;2022-07-01T13:45:06;101623.66;;;22.91;56.45
67038;BME280;53940;53.204;6.590;2022-07-01T13:48:06;101634.41;;;22.91;56.72
67038;BME280;53940;53.204;6.590;2022-07-01T13:51:07;101630.75;;;22.92;56.55
67038;BME280;53940;53.204;6.590;2022-07-01T13:54:07;101635.13;;;22.93;56.50
67038;BME280;53940;53.204;6.590;2022-07-01T13:57:08;101645.88;;;22.93;56.69
67038;BME280;53940;53.204;6.590;2022-07-01T14:00:09;101644.91;;;22.94;56.29
67038;BME280;53940;53.204;6.590;2022-07-01T14:03:09;101644.91;;;22.94;56.55
67038;BME280;53940;53.204;6.590;2022-07-01T14:06:12;101649.31;;;22.95;56.40
67038;BME280;53940;53.204;6.590;2022-07-01T14:09:13;101661.75;;;22.96;56.50
67038;BME280;53940;53.204;6.590;2022-07-01T14:12:13;101665.28;;;22.97;56.54
67038;BME280;53940;53.204;6.590;2022-07-01T14:15:15;101667.13;;;22.96;56.49
67038;BME280;53940;53.204;6.590;2022-07-01T14:18:15;101671.50;;;22.97;56.48
67038;BME280;53940;53.204;6.590;2022-07-01T14:21:16;101683.13;;;22.98;56.40
67038;BME280;53940;53.204;6.590;2022-07-01T14:24:17;101683.13;;;22.98;56.42
67038;BME280;53940;53.204;6.590;2022-07-01T14:27:17;101672.38;;;22.98;56.30
67038;BME280;53940;53.204;6.590;2022-07-01T14:30:19;101678.59;;;22.98;56.22
67038;BME280;53940;53.204;6.590;2022-07-01T14:33:19;101682.25;;;22.97;56.45
67038;BME280;53940;53.204;6.590;2022-07-01T14:36:20;101687.63;;;22.97;56.46
67038;BME280;53940;53.204;6.590;2022-07-01T14:39:20;101680.56;;;22.96;56.33
67038;BME280;53940;53.204;6.590;2022-07-01T14:42:20;101680.56;;;22.96;56.44
67038;BME280;53940;53.204;6.590;2022-07-01T14:45:20;101683.25;;;22.96;56.32
67038;BME280;53940;53.204;6.590;2022-07-01T14:48:21;101694.13;;;22.95;56.43
67038;BME280;53940;53.204;6.590;2022-07-01T14:51:21;101693.28;;;22.94;56.34
67038;BME280;53940;53.204;6.590;2022-07-01T14:54:22;101689.75;;;22.94;56.34
67038;BME280;53940;53.204;6.590;2022-07-01T14:57:22;101690.59;;;22.94;56.36
67038;BME280;53940;53.204;6.590;2022-07-01T15:00:22;101686.19;;;22.93;56.35
67038;BME280;53940;53.204;6.590;2022-07-01T15:03:25;101675.44;;;22.93;56.31
67038;BME280;53940;53.204;6.590;2022-07-01T15:06:25;101673.75;;;22.92;56.41
67038;BME280;53940;53.204;6.590;2022-07-01T15:09:26;101676.44;;;22.92;56.37
67038;BME280;53940;53.204;6.590;2022-07-01T15:12:27;101679.13;;;22.92;56.20
67038;BME280;53940;53.204;6.590;2022-07-01T15:15:28;101677.41;;;22.91;56.20
67038;BME280;53940;53.204;6.590;2022-07-01T15:18:28;101683.66;;;22.92;56.49
67038;BME280;53940;53.204;6.590;2022-07-01T15:21:29;101678.28;;;22.92;56.31
67038;BME280;53940;53.204;6.590;2022-07-01T15:24:30;101688.16;;;22.91;56.56
67038;BME280;53940;53.204;6.590;2022-07-01T15:27:30;101687.31;;;22.91;56.19
67038;BME280;53940;53.204;6.590;2022-07-01T15:30:31;101682.91;;;22.89;56.46
67038;BME280;53940;53.204;6.590;2022-07-01T15:33:31;101684.78;;;22.89;56.34
67038;BME280;53940;53.204;6.590;2022-07-01T15:36:31;101686.72;;;22.87;56.28
67038;BME280;53940;53.204;6.590;2022-07-01T15:39:32;101690.16;;;22.89;56.17
67038;BME280;53940;53.204;6.590;2022-07-01T15:42:35;101690.41;;;22.86;56.22
67038;BME280;53940;53.204;6.590;2022-07-01T15:45:36;101697.63;;;22.85;56.50
67038;BME280;53940;53.204;6.590;2022-07-01T15:48:37;101697.63;;;22.85;56.31
67038;BME280;53940;53.204;6.590;2022-07-01T15:51:38;101704.84;;;22.85;56.22
67038;BME280;53940;53.204;6.590;2022-07-01T15:54:39;101700.31;;;22.85;56.15
67038;BME280;53940;53.204;6.590;2022-07-01T15:57:40;101705.69;;;22.85;56.24
67038;BME280;53940;53.204;6.590;2022-07-01T16:00:42;101715.59;;;22.85;56.32